createdAt,value
2024-04-21T00:01:24.333Z,1.98
2024-04-21T00:03:51.768Z,1.50
2024-04-21T00:06:21.882Z,2.00
2024-04-21T00:11:18.531Z,1.23
2024-04-21T00:13:45.667Z,1.77
2024-04-21T00:16:15.745Z,1.38
2024-04-21T00:18:45.616Z,2.63
2024-04-21T00:21:15.914Z,1.77
2024-04-21T00:23:42.994Z,1.25
2024-04-21T00:26:12.691Z,1.15
2024-04-21T00:28:39.872Z,1.48
2024-04-21T00:31:09.838Z,2.33
2024-04-21T00:36:09.724Z,1.92
2024-04-21T00:38:36.857Z,2.40
2024-04-21T00:41:06.846Z,2.20
2024-04-21T00:46:05.269Z,1.70
2024-04-21T00:48:33.971Z,1.55
2024-04-21T00:51:05.114Z,2.10
2024-04-21T00:53:35.604Z,1.88
2024-04-21T00:56:05.653Z,1.70
2024-04-21T00:58:32.866Z,2.50
2024-04-21T01:01:04.052Z,1.80
2024-04-21T01:03:31.430Z,1.15
2024-04-21T01:06:01.205Z,1.00
2024-04-21T01:08:28.636Z,1.77
2024-04-21T01:11:00.999Z,2.20
2024-04-21T01:13:28.104Z,1.63
2024-04-21T01:15:57.953Z,0.93
2024-04-21T01:18:25.112Z,1.25
2024-04-21T01:20:54.958Z,1.73
2024-04-21T01:23:24.715Z,1.52
2024-04-21T01:25:54.428Z,2.17
2024-04-21T01:28:21.589Z,1.42
2024-04-21T01:30:51.339Z,2.42
2024-04-21T01:33:18.489Z,2.47
2024-04-21T01:35:50.260Z,1.73
2024-04-21T01:38:17.942Z,1.80
2024-04-21T01:40:50.744Z,1.60
2024-04-21T01:43:17.913Z,3.13
2024-04-21T01:45:47.672Z,5.38
2024-04-21T01:48:14.801Z,2.40
2024-04-21T01:50:44.542Z,2.08
2024-04-21T01:53:11.630Z,2.50
2024-04-21T01:55:41.351Z,2.30
2024-04-21T01:58:11.296Z,2.75
2024-04-21T02:00:41.177Z,1.77
2024-04-21T02:03:08.315Z,3.50
2024-04-21T02:05:38.068Z,2.10
2024-04-21T02:08:06.155Z,2.55
2024-04-21T02:10:35.865Z,2.25
2024-04-21T02:13:03.106Z,1.77
2024-04-21T02:15:35.549Z,2.28
2024-04-21T02:18:02.769Z,1.55
2024-04-21T02:20:32.652Z,1.45
2024-04-21T02:22:59.827Z,1.83
2024-04-21T02:25:29.545Z,2.28
2024-04-21T02:27:56.674Z,3.10
2024-04-21T02:30:26.782Z,2.40
2024-04-21T02:32:56.973Z,2.58
2024-04-21T02:35:26.762Z,2.75
2024-04-21T02:37:53.862Z,1.92
2024-04-21T02:40:23.642Z,1.08
2024-04-21T02:42:50.829Z,1.42
2024-04-21T02:45:20.880Z,1.70
2024-04-21T02:47:48.157Z,3.17
2024-04-21T02:50:20.542Z,1.27
2024-04-21T02:52:47.648Z,2.80
2024-04-21T02:55:18.274Z,2.65
2024-04-21T02:57:45.447Z,2.47
2024-04-21T03:00:16.117Z,1.40
2024-04-21T03:02:43.305Z,1.23
2024-04-21T03:05:13.433Z,1.63
2024-04-21T03:07:43.185Z,1.88
2024-04-21T03:10:13.014Z,1.98
2024-04-21T03:12:40.178Z,2.65
2024-04-21T03:15:10.051Z,1.65
2024-04-21T03:17:37.228Z,2.42
2024-04-21T03:20:07.646Z,2.67
2024-04-21T03:22:34.825Z,2.00
2024-04-21T03:25:07.741Z,1.45
2024-04-21T03:27:34.953Z,1.75
2024-04-21T03:30:04.761Z,1.95
2024-04-21T03:32:31.991Z,1.92
2024-04-21T03:35:01.759Z,1.40
2024-04-21T03:37:32.038Z,1.73
2024-04-21T03:40:03.962Z,2.75
2024-04-21T03:42:37.388Z,1.40
2024-04-21T03:45:09.757Z,1.73
2024-04-21T03:47:39.682Z,1.17
2024-04-21T03:52:36.947Z,1.77
2024-04-21T03:55:04.530Z,2.55
2024-04-21T03:57:37.949Z,1.55
2024-04-21T04:00:06.378Z,2.95
2024-04-21T04:02:36.093Z,1.40
2024-04-21T04:05:04.182Z,1.98
2024-04-21T04:07:33.993Z,2.05
2024-04-21T04:10:01.248Z,1.17
2024-04-21T04:12:31.043Z,2.08
2024-04-21T04:15:00.832Z,1.13
2024-04-21T04:17:30.637Z,1.33
2024-04-21T04:19:57.782Z,1.23
2024-04-21T04:22:27.594Z,0.73
2024-04-21T04:24:54.744Z,1.10
2024-04-21T04:27:24.515Z,1.70
2024-04-21T04:29:51.614Z,0.85
2024-04-21T04:32:23.958Z,0.75
2024-04-21T04:34:52.468Z,1.40
2024-04-21T04:37:22.679Z,1.23
2024-04-21T04:39:49.799Z,1.17
2024-04-21T04:42:19.641Z,1.30
2024-04-21T04:44:46.753Z,1.38
2024-04-21T04:47:16.538Z,0.77
2024-04-21T04:49:46.340Z,0.50
2024-04-21T04:52:16.202Z,2.38
2024-04-21T04:57:12.882Z,0.43
2024-04-21T04:59:40.073Z,1.23
2024-04-21T05:02:09.765Z,1.15
2024-04-21T05:04:37.019Z,1.20
2024-04-21T05:07:12.528Z,1.45
2024-04-21T05:09:41.151Z,0.90
2024-04-21T05:12:11.201Z,0.90
2024-04-21T05:14:38.322Z,1.38
2024-04-21T05:17:08.156Z,1.27
2024-04-21T05:19:35.328Z,1.67
2024-04-21T05:22:05.121Z,2.13
2024-04-21T05:24:34.951Z,1.38
2024-04-21T05:27:05.016Z,5.05
2024-04-21T05:29:32.308Z,3.30
2024-04-21T05:32:02.061Z,3.85
2024-04-21T05:34:30.155Z,2.17
2024-04-21T05:36:59.965Z,2.42
2024-04-21T05:39:27.064Z,1.85
2024-04-21T05:42:00.366Z,1.92
2024-04-21T05:44:28.863Z,1.67
2024-04-21T05:46:58.568Z,1.02
2024-04-21T05:49:28.305Z,2.67
2024-04-21T05:51:55.446Z,1.17
2024-04-21T05:54:25.176Z,1.45
2024-04-21T05:56:52.256Z,1.98
2024-04-21T05:59:26.191Z,3.63
2024-04-21T06:01:55.056Z,1.10
2024-04-21T06:04:25.227Z,1.15
2024-04-21T06:06:52.470Z,2.85
2024-04-21T06:09:22.262Z,1.52
2024-04-21T06:11:49.452Z,1.08
2024-04-21T06:14:19.211Z,3.20
2024-04-21T06:16:48.892Z,1.85
2024-04-21T06:19:18.648Z,2.50
2024-04-21T06:21:45.780Z,4.30
2024-04-21T06:24:15.529Z,3.00
2024-04-21T06:26:44.803Z,3.40
2024-04-21T06:29:15.845Z,2.20
2024-04-21T06:31:43.497Z,1.63
2024-04-21T06:34:15.882Z,1.58
2024-04-21T06:36:43.000Z,2.00
2024-04-21T06:39:12.794Z,2.20
2024-04-21T06:44:09.498Z,1.25
2024-04-21T06:46:36.622Z,1.17
2024-04-21T06:49:06.424Z,2.45
2024-04-21T06:51:37.097Z,1.50
2024-04-21T06:54:06.991Z,2.60
2024-04-21T06:59:03.617Z,2.60
2024-04-21T07:01:30.839Z,1.83
2024-04-21T07:04:00.781Z,1.95
2024-04-21T07:09:00.039Z,2.60
2024-04-21T07:11:27.249Z,2.65
2024-04-21T07:14:06.226Z,1.50
2024-04-21T07:16:41.668Z,1.48
2024-04-21T07:19:11.470Z,1.25
2024-04-21T07:21:38.576Z,1.27
2024-04-21T07:24:11.221Z,1.13
2024-04-21T07:26:38.332Z,2.35
2024-04-21T07:29:08.398Z,1.30
2024-04-21T07:31:35.492Z,1.95
2024-04-21T07:34:05.275Z,1.17
2024-04-21T07:36:32.395Z,1.02
2024-04-21T07:39:02.111Z,0.90
2024-04-21T07:41:32.102Z,1.60
2024-04-21T07:44:01.801Z,1.17
2024-04-21T07:46:28.990Z,2.10
2024-04-21T07:48:58.821Z,1.10
2024-04-21T07:51:25.963Z,2.20
2024-04-21T07:53:55.647Z,1.52
2024-04-21T07:56:22.782Z,1.98
2024-04-21T07:58:55.101Z,1.05
2024-04-21T08:01:22.349Z,0.50
2024-04-21T08:03:52.218Z,0.52
2024-04-21T08:08:53.665Z,1.88
2024-04-21T08:11:27.781Z,2.15
2024-04-21T08:16:29.062Z,1.10
2024-04-21T08:18:56.952Z,1.42
2024-04-21T08:21:26.761Z,2.40
2024-04-21T08:23:53.887Z,1.15
2024-04-21T08:26:24.957Z,1.63
2024-04-21T08:28:52.342Z,1.48
2024-04-21T08:31:24.935Z,0.98
2024-04-21T08:33:52.118Z,1.70
2024-04-21T08:36:21.830Z,2.42
2024-04-21T08:38:48.946Z,3.33
2024-04-21T08:41:24.332Z,2.85
2024-04-21T08:43:52.430Z,4.30
2024-04-21T08:46:25.170Z,13.20
2024-04-21T08:48:53.490Z,10.73
2024-04-21T08:51:24.798Z,10.05
2024-04-21T08:53:51.928Z,12.48
2024-04-21T08:56:22.909Z,14.00
2024-04-21T08:58:52.173Z,11.70
2024-04-21T09:01:26.438Z,13.88
2024-04-21T09:03:54.029Z,11.88
2024-04-21T09:06:27.005Z,10.23
2024-04-21T09:08:54.635Z,10.50
2024-04-21T09:11:24.405Z,12.10
2024-04-21T09:16:21.161Z,13.27
2024-04-21T09:21:20.909Z,8.20
2024-04-21T09:23:47.988Z,8.85
2024-04-21T09:26:20.854Z,10.25
2024-04-21T09:28:49.245Z,12.40
2024-04-21T09:31:19.144Z,7.25
2024-04-21T09:33:46.790Z,10.75
2024-04-21T09:36:19.151Z,6.70
2024-04-21T09:38:50.670Z,8.63
2024-04-21T09:41:18.658Z,7.25
2024-04-21T09:43:49.987Z,8.82
2024-04-21T09:46:20.434Z,6.03
2024-04-21T09:48:53.106Z,7.55
2024-04-21T09:51:24.868Z,6.32
2024-04-21T09:53:57.501Z,6.53
2024-04-21T09:56:34.412Z,7.07
2024-04-21T09:59:06.661Z,8.65
2024-04-21T10:01:36.964Z,5.18
2024-04-21T10:04:11.740Z,8.35
2024-04-21T10:06:44.351Z,6.82
2024-04-21T10:09:13.953Z,7.53
2024-04-21T10:11:43.686Z,7.03
